Aérodrome :
LOGIN :

S'inscrire | Disclaimer

   EN    FR    IT 

 










Légende :    VFR   VFR Marginal   IFR   IFR Intensif   IFR Très Intensif
Visi : 
Plafond : 
>= 8 km
>= 3000ft
5 à 8 km
1000 à 3000 ft
1500m à 5 km
500 à 1000 ft
800 à 1500m
200 à 500 ft
< 800m
< 200 ft
Symboles :   Orages  Brouillard  Fortes neiges  Fortes précipitations  Vent > 20 kt
SIGMETs :   Divers  Orages  Givrage  Turbulence  Onde Orograph.  Cendres Volcan.







- Altitude de l'aérodrome : 1568 ft


ETSB - Büchel AB

DERNIER METAR :
  • 131643Z 22012KT 0500 R21/1200D SN FG OVC001 00/M00 Q0998 BLACKRED AMB TEMPO RED

METARs EXPIRÉS :
  • 131630Z 22011KT 1200 R21/1600D SN BR OVC001 M00/M00 Q0998 BLACKRED AMB TEMPO RED
  • 131620Z 22011KT 2000 SN BR OVC001 M00/M00 Q0999 BLACKRED AMB TEMPO RED
  • 131611Z 22011G21KT 2000 SN BR OVC001 M00/M00 Q0999 BLACKRED AMB TEMPO RED
  • 131536Z 22014KT 3000 -SN BR OVC002 M00/M00 Q1000 BLACKAMB AMB TEMPO RED
  • 131520Z 22013KT 2000 R21/1700N -SN BR OVC002 M00/M00 Q1000 RESN BLACKAMB AMB TEMPO RED
  • 131504Z 22013KT 2000 R21/1700U -SN BR OVC002 M00/M00 Q1000 RESN BLACKAMB AMB TEMPO RED
  • 131420Z 22014KT 0700 R21/1000N +SN OVC002 M00/M00 Q1000 BLACKRED AMB TEMPO RED

TAF TAF ETSB
Valide du 13 à 15h jusqu'au 14 à 00h UTC


131420Z 1315/1324 22015G30KT 2000 -RASN SCT001 OVC002
TEMPO 1315/1324 21015G35KT 0700 +SNRA BKN001 OVC002 BY ETGL
Pas de NOTAMs connus pour ce terrain.



MET'MAP, la Météo Aéronautique d'un coup d'oeil ! - Copyright ORBIFLY Décembre 2007 - Disclaimer

ORBIFLY MET'MAP TEAM :

Programmation & Développement : Alexandra Zaïnal
Conception & Développement : Baudouin d'Aumeries
Co-Programmation & Développement : Marc-Olivier Méhu
Soutien technique & logistique : Manuel Goepfert

Contact : metmap@orbifly.com




SOURCES & CREDITS :

   NOAA